New Braunfels, TX

11:25 AM CST on December 20, 2014 (GMT -0600)
New Braunfels Municipal | Change Station
CLOSE
Current Station
Airport
Location: New Braunfels,
Elevation: 643 ft
Nearby Weather Stations

Elev 643 ft 29.71 °N, 98.05 °W | Updated 34 minutes ago

Overcast
Overcast
53 °F
Feels Like 53 °F
N
8
Wind Variable Wind from North

Today
High -- | Low -- °F
--% Chance of Precip.
Yesterday
High -- | Low -- °F
Precip. -- in
7:22 AM 5:37 PM
Waning Crescent, 2% visible
Pressure 30.23 in
Visibility 10.0 miles
Clouds Overcast 1800 ft
Dew Point 44 °F
Humidity 71%
Rainfall 0.00 in
Snow Depth Not available.
UV 1 out of 12
Pollen 9.60 out of 12
Air Quality Not available.
Flu Activity Not available.
METAR KBAZ 201651Z 01007KT 10SM OVC018 12/07 A3024 RMK AO2 SLP237 T01170067

More Conditions Fewer Conditions

Pressure 30.23 in
Visibility 10.0 miles
Clouds Overcast 1800 ft
Dew Point 44 °F
Humidity 71%
Rainfall 0.00 in
Snow Depth Not available.
UV 1 out of 12
Pollen 9.60 out of 12
Air Quality Not available.
Flu Activity Not available.
METAR KBAZ 201651Z 01007KT 10SM OVC018 12/07 A3024 RMK AO2 SLP237 T01170067

More Conditions Fewer Conditions

10-Day Weather Forecast

Almanac

Astronomy

Dec. 20, 2014 Rise Set
Actual Time
Civil Twilight
Nautical Twilight
Astronomical Twilight
Moon
Length of Visible Light
Length of Day
Tomorrow will be .
, % of the Moon is Illuminated

Today's Extremes

State Highs State Lows

Community

WunderPhotos

Upload Photos

1,779,226 photos uploaded!

WunderBlogs® & News

Nearby

Air Quality

  Air Quality AQ Index Pollutant
Not available.

Snow Depth

Station Depth Elevation

Earthquake Activity

City Distance Mag. Time & Date
Minimum magnitude displayed is 2.5.

Coastal Water Temperatures

Place Temperature

Nearby Weather Stations